ON7AMI-5 Weather Reports


time (UTC)temp
C
wind
direction
speed
KPH
gust
KPH
rain 1hr
cm
rain 24hr
cm
rain mn
cm
humidity
%
barometer
mb
20190418121344 23 0 0.0 0.0 0.00 0.00 0.00 29 1021.5
20190418120844 23 0 0.0 0.0 0.00 0.00 0.00 31 1021.7
20190418120345 23 0 0.0 0.0 0.00 0.00 0.00 29 1021.4
20190418115844 22 0 0.0 0.0 0.00 0.00 0.00 29 1021.4
20190418115344 22 0 0.0 0.0 0.00 0.00 0.00 28 1021.2
20190418114844 22 0 0.0 0.0 0.00 0.00 0.00 28 1021.4
20190418114345 23 0 0.0 0.0 0.00 0.00 0.00 32 1021.7
20190418113844 22 0 0.0 0.0 0.00 0.00 0.00 34 1021.8
20190418113344 22 0 0.0 0.0 0.00 0.00 0.00 31 1021.6
20190418112844 22 0 0.0 0.0 0.00 0.00 0.00 31 1021.7
20190418112344 22 0 0.0 0.0 0.00 0.00 0.00 32 1021.7
20190418111844 22 0 0.0 0.0 0.00 0.00 0.00 32 1021.7
20190418110844 22 0 0.0 0.0 0.00 0.00 0.00 38 1022.0
20190418110344 21 0 0.0 0.0 0.00 0.00 0.00 36 1021.6
20190418105844 21 0 0.0 0.0 0.00 0.00 0.00 37 1021.8
20190418104844 21 0 0.0 0.0 0.00 0.00 0.00 41 1022.3
20190418104344 21 0 0.0 0.0 0.00 0.00 0.00 41 1022.2
20190418103344 21 0 0.0 0.0 0.00 0.00 0.00 42 1022.3
20190418102844 21 0 0.0 0.0 0.00 0.00 0.00 43 1022.2
20190418102344 20 0 0.0 0.0 0.00 0.00 0.00 44 1022.4
20190418101844 20 0 0.0 0.0 0.00 0.00 0.00 44 1022.4
20190418101344 20 0 0.0 0.0 0.00 0.00 0.00 44 1022.5
20190418095844 19 0 0.0 0.0 0.00 0.00 0.00 47 1022.6
20190418095344 18 0 0.0 0.0 0.00 0.00 0.00 48 1022.6
20190418094844 18 0 0.0 0.0 0.00 0.00 0.00 47 1022.6
20190418094344 18 0 0.0 0.0 0.00 0.00 0.00 49 1022.7
20190418093844 18 0 0.0 0.0 0.00 0.00 0.00 52 1022.7
20190418093344 18 0 0.0 0.0 0.00 0.00 0.00 49 1022.5
20190418092344 17 0 0.0 0.0 0.00 0.00 0.00 51 1022.5
20190418091845 17 0 0.0 0.0 0.00 0.00 0.00 53 1022.6
20190418090844 17 0 0.0 0.0 0.00 0.00 0.00 55 1022.6
20190418090344 17 0 0.0 0.0 0.00 0.00 0.00 55 1022.7
20190418085844 17 0 0.0 0.0 0.00 0.00 0.00 56 1022.8
20190418085344 17 0 0.0 0.0 0.00 0.00 0.00 60 1022.9
20190418084844 17 0 0.0 0.0 0.00 0.00 0.00 59 1022.7
20190418084344 16 0 0.0 0.0 0.00 0.00 0.00 60 1022.6
20190418083844 16 0 0.0 0.0 0.00 0.00 0.00 60 1022.6
20190418083344 16 0 0.0 0.0 0.00 0.00 0.00 62 1022.5
20190418082844 16 0 0.0 0.0 0.00 0.00 0.00 63 1022.6
20190418082344 16 0 0.0 0.0 0.00 0.00 0.00 65 1022.6
20190418081844 16 0 0.0 0.0 0.00 0.00 0.00 68 1022.6
20190418081344 15 0 0.0 0.0 0.00 0.00 0.00 69 1022.5
20190418080844 15 0 0.0 0.0 0.00 0.00 0.00 70 1022.5
20190418080344 15 0 0.0 0.0 0.00 0.00 0.00 70 1022.6
20190418075845 14 0 0.0 0.0 0.00 0.00 0.00 71 1022.5
20190418075344 13 0 0.0 0.0 0.00 0.00 0.00 72 1022.4
20190418074844 13 0 0.0 0.0 0.00 0.00 0.00 74 1022.4
20190418074344 13 0 0.0 0.0 0.00 0.00 0.00 75 1022.3
20190418073844 13 0 0.0 0.0 0.00 0.00 0.00 79 1022.5
20190418073344 13 0 0.0 0.0 0.00 0.00 0.00 80 1022.3
20190418072844 12 0 0.0 0.0 0.00 0.00 0.00 79 1022.1
20190418071844 12 0 0.0 0.0 0.00 0.00 0.00 84 1022.3
20190418071344 12 0 0.0 0.0 0.00 0.00 0.00 85 1022.1
20190418070844 11 0 0.0 0.0 0.00 0.00 0.00 88 1022.1
20190418070344 11 0 0.0 0.0 0.00 0.00 0.00 88 1022.0
20190418065844 11 0 0.0 0.0 0.00 0.00 0.00 90 1021.9
20190418065344 11 0 0.0 0.0 0.00 0.00 0.00 92 1021.9
20190418064844 11 0 0.0 0.0 0.00 0.00 0.00 94 1021.8
20190418064344 10 0 0.0 0.0 0.00 0.00 0.00 95 1021.8
20190418063844 10 0 0.0 0.0 0.00 0.00 0.00 98 1021.8
20190418063344 10 0 0.0 0.0 0.00 0.00 0.00 100 1021.9
20190418062844 10 0 0.0 0.0 0.00 0.00 0.00 100 1021.9
20190418062344 9 0 0.0 0.0 0.00 0.00 0.00 100 1022.0
20190418061844 9 0 0.0 0.0 0.00 0.00 0.00 100 1022.0
20190418061344 8 0 0.0 0.0 0.00 0.00 0.00 100 1021.9
20190418060844 8 0 0.0 0.0 0.00 0.00 0.00 100 1021.9
20190418060344 8 0 0.0 0.0 0.00 0.00 0.00 100 1021.8
20190418055844 8 0 0.0 0.0 0.00 0.00 0.00 100 1021.7
20190418055344 8 0 0.0 0.0 0.00 0.00 0.00 100 1021.7
20190418054844 8 0 0.0 0.0 0.00 0.00 0.00 100 1021.7
20190418054345 8 0 0.0 0.0 0.00 0.00 0.00 100 1021.6
20190418053844 8 0 0.0 0.0 0.00 0.00 0.00 100 1021.5
20190418053344 8 0 0.0 0.0 0.00 0.00 0.00 100 1021.5
20190418052845 8 0 0.0 0.0 0.00 0.00 0.00 100 1021.5
20190418052344 7 0 0.0 0.0 0.00 0.00 0.00 100 1021.4
20190418051844 7 0 0.0 0.0 0.00 0.00 0.00 100 1021.4
20190418051344 7 0 0.0 0.0 0.00 0.00 0.00 100 1021.4
20190418050844 7 0 0.0 0.0 0.00 0.00 0.00 100 1021.4
20190418045844 7 0 0.0 0.0 0.00 0.00 0.00 100 1021.4
20190418044844 7 0 0.0 0.0 0.00 0.00 0.00 100 1021.4
20190418044344 7 0 0.0 0.0 0.00 0.00 0.00 100 1021.5
20190418043844 7 0 0.0 0.0 0.00 0.00 0.00 100 1021.5
20190418043344 8 0 0.0 0.0 0.00 0.00 0.00 100 1021.4
20190418042844 8 0 0.0 0.0 0.00 0.00 0.00 100 1021.4
20190418042344 8 0 0.0 0.0 0.00 0.00 0.00 100 1021.4
20190418041844 8 0 0.0 0.0 0.00 0.00 0.00 100 1021.4
20190418041344 8 0 0.0 0.0 0.00 0.00 0.00 100 1021.4
20190418035844 8 0 0.0 0.0 0.00 0.00 0.00 100 1021.4
20190418035344 8 0 0.0 0.0 0.00 0.00 0.00 100 1021.4
20190418034344 8 0 0.0 0.0 0.00 0.00 0.00 100 1021.3
20190418033844 8 0 0.0 0.0 0.00 0.00 0.00 100 1021.3
20190418032844 8 0 0.0 0.0 0.00 0.00 0.00 100 1021.4
20190418032344 8 0 0.0 0.0 0.00 0.00 0.00 100 1021.5
20190418031844 8 0 0.0 0.0 0.00 0.00 0.00 100 1021.5
20190418031344 8 0 0.0 0.0 0.00 0.00 0.00 100 1021.5
20190418030845 8 0 0.0 0.0 0.00 0.00 0.00 100 1021.5
20190418030344 8 0 0.0 0.0 0.00 0.00 0.00 100 1021.6
20190418025844 8 0 0.0 0.0 0.00 0.00 0.00 100 1021.6
20190418025344 8 0 0.0 0.0 0.00 0.00 0.00 100 1021.6
20190418024844 8 0 0.0 0.0 0.00 0.00 0.00 100 1021.7
20190418024344 8 0 0.0 0.0 0.00 0.00 0.00 100 1021.7
20190418023844 8 0 0.0 0.0 0.00 0.00 0.00 100 1021.7
20190418023344 8 0 0.0 0.0 0.00 0.00 0.00 100 1021.7
20190418022844 8 0 0.0 0.0 0.00 0.00 0.00 100 1021.7
20190418022344 8 0 0.0 0.0 0.00 0.00 0.00 100 1021.7
20190418021344 9 0 0.0 0.0 0.00 0.00 0.00 100 1021.8
20190418020844 9 0 0.0 0.0 0.00 0.00 0.00 100 1021.8
20190418020344 9 0 0.0 0.0 0.00 0.00 0.00 100 1021.7
20190418015844 9 0 0.0 0.0 0.00 0.00 0.00 100 1021.7
20190418015344 9 0 0.0 0.0 0.00 0.00 0.00 100 1021.6
20190418014844 9 0 0.0 0.0 0.00 0.00 0.00 100 1021.6
20190418014344 9 0 0.0 0.0 0.00 0.00 0.00 100 1021.5
20190418013844 9 0 0.0 0.0 0.00 0.00 0.00 100 1021.4
20190418013344 9 0 0.0 0.0 0.00 0.00 0.00 100 1021.4
20190418012844 9 0 0.0 0.0 0.00 0.00 0.00 100 1021.3
20190418012344 9 0 0.0 0.0 0.00 0.00 0.00 100 1021.4
20190418011844 9 0 0.0 0.0 0.00 0.00 0.00 100 1021.3
20190418011347 9 0 0.0 0.0 0.00 0.00 0.00 100 1021.3
20190418010844 9 0 0.0 0.0 0.00 0.00 0.00 100 1021.3
20190418005845 9 0 0.0 0.0 0.00 0.00 0.00 100 1021.3
20190418004844 9 0 0.0 0.0 0.00 0.00 0.00 100 1021.3
20190418004344 9 0 0.0 0.0 0.00 0.00 0.00 100 1021.3
20190418003844 9 0 0.0 0.0 0.00 0.00 0.00 100 1021.3
20190418003344 9 0 0.0 0.0 0.00 0.00 0.00 100 1021.4
20190418002844 10 0 0.0 0.0 0.00 0.00 0.00 100 1021.4
20190418002344 9 0 0.0 0.0 0.00 0.00 0.00 100 1021.4
20190418001844 10 0 0.0 0.0 0.00 0.00 0.00 100 1021.5
20190418001344 10 0 0.0 0.0 0.00 0.00 0.00 100 1021.5
20190418000844 10 0 0.0 0.0 0.00 0.00 0.00 100 1021.5
20190418000349 10 0 0.0 0.0 0.00 0.00 0.00 100 1021.4
20190417235844 10 0 0.0 0.0 0.00 0.00 0.00 100 1021.4
20190417235344 10 0 0.0 0.0 0.00 0.00 0.00 100 1021.4
20190417234844 10 0 0.0 0.0 0.00 0.00 0.00 100 1021.5
20190417234344 10 0 0.0 0.0 0.00 0.00 0.00 100 1021.5
20190417233844 10 0 0.0 0.0 0.00 0.00 0.00 100 1021.5
20190417233344 10 0 0.0 0.0 0.00 0.00 0.00 100 1021.6
20190417232844 10 0 0.0 0.0 0.00 0.00 0.00 100 1021.6
20190417232344 10 0 0.0 0.0 0.00 0.00 0.00 99 1021.6
20190417231844 10 0 0.0 0.0 0.00 0.00 0.00 99 1021.5
20190417231344 10 0 0.0 0.0 0.00 0.00 0.00 98 1021.5
20190417230846 10 0 0.0 0.0 0.00 0.00 0.00 97 1021.6
20190417230344 10 0 0.0 0.0 0.00 0.00 0.00 97 1021.5
20190417225344 10 0 0.0 0.0 0.00 0.00 0.00 95 1021.6
20190417224844 11 0 0.0 0.0 0.00 0.00 0.00 95 1021.6
20190417224344 11 0 0.0 0.0 0.00 0.00 0.00 94 1021.5
20190417223844 11 0 0.0 0.0 0.00 0.00 0.00 93 1021.5
20190417223344 11 0 0.0 0.0 0.00 0.00 0.00 92 1021.5
20190417222844 11 0 0.0 0.0 0.00 0.00 0.00 91 1021.5
20190417222344 11 0 0.0 0.0 0.00 0.00 0.00 90 1021.4
20190417221844 11 0 0.0 0.0 0.00 0.00 0.00 89 1021.4
20190417221344 11 0 0.0 0.0 0.00 0.00 0.00 88 1021.3
20190417220844 12 0 0.0 0.0 0.00 0.00 0.00 87 1021.4
20190417220344 12 0 0.0 0.0 0.00 0.00 0.00 86 1021.4
20190417215844 12 0 0.0 0.0 0.00 0.00 0.00 85 1021.5
20190417214844 12 0 0.0 0.0 0.00 0.00 0.00 83 1021.4
20190417214344 12 0 0.0 0.0 0.00 0.00 0.00 83 1021.4
20190417213844 12 0 0.0 0.0 0.00 0.00 0.00 83 1021.4
20190417213344 12 0 0.0 0.0 0.00 0.00 0.00 83 1021.5
20190417212844 12 0 0.0 0.0 0.00 0.00 0.00 83 1021.6
20190417212344 12 0 0.0 0.0 0.00 0.00 0.00 83 1021.6
20190417211844 12 0 0.0 0.0 0.00 0.00 0.00 83 1021.6
20190417211344 12 0 0.0 0.0 0.00 0.00 0.00 83 1021.6
20190417210844 12 0 0.0 0.0 0.00 0.00 0.00 83 1021.6
20190417210344 12 0 0.0 0.0 0.00 0.00 0.00 83 1021.6
20190417205844 12 0 0.0 0.0 0.00 0.00 0.00 83 1021.5
20190417205344 12 0 0.0 0.0 0.00 0.00 0.00 84 1021.4
20190417204844 12 0 0.0 0.0 0.00 0.00 0.00 84 1021.4
20190417204344 12 0 0.0 0.0 0.00 0.00 0.00 83 1021.4
20190417203844 12 0 0.0 0.0 0.00 0.00 0.00 84 1021.4
20190417203344 13 0 0.0 0.0 0.00 0.00 0.00 84 1021.4
20190417202844 13 0 0.0 0.0 0.00 0.00 0.00 84 1021.3
20190417202344 13 0 0.0 0.0 0.00 0.00 0.00 83 1021.3
20190417201844 13 0 0.0 0.0 0.00 0.00 0.00 84 1021.3
20190417200844 13 0 0.0 0.0 0.00 0.00 0.00 84 1021.4
20190417200344 13 0 0.0 0.0 0.00 0.00 0.00 84 1021.3
20190417195844 13 0 0.0 0.0 0.00 0.00 0.00 84 1021.3
20190417195344 13 0 0.0 0.0 0.00 0.00 0.00 84 1021.2
20190417194845 13 0 0.0 0.0 0.00 0.00 0.00 83 1021.1
20190417194344 13 0 0.0 0.0 0.00 0.00 0.00 84 1021.2
20190417193844 13 0 0.0 0.0 0.00 0.00 0.00 84 1021.1
20190417193344 13 0 0.0 0.0 0.00 0.00 0.00 84 1021.1
20190417192344 13 0 0.0 0.0 0.00 0.00 0.00 83 1021.1
20190417191844 13 0 0.0 0.0 0.00 0.00 0.00 83 1021.0
20190417191344 13 0 0.0 0.0 0.00 0.00 0.00 83 1020.9
20190417190844 13 0 0.0 0.0 0.00 0.00 0.00 82 1020.9
20190417185844 13 0 0.0 0.0 0.00 0.00 0.00 82 1020.8
20190417185344 13 0 0.0 0.0 0.00 0.00 0.00 82 1020.7
20190417184844 13 0 0.0 0.0 0.00 0.00 0.00 82 1020.7
20190417184344 13 0 0.0 0.0 0.00 0.00 0.00 82 1020.7
20190417183345 13 0 0.0 0.0 0.00 0.00 0.00 81 1020.6
20190417182844 13 0 0.0 0.0 0.00 0.00 0.00 81 1020.6
20190417182344 13 0 0.0 0.0 0.00 0.00 0.00 81 1020.5
20190417181844 13 0 0.0 0.0 0.00 0.00 0.00 81 1020.5
20190417181344 13 0 0.0 0.0 0.00 0.00 0.00 81 1020.5
20190417180844 13 0 0.0 0.0 0.00 0.00 0.00 82 1020.5
20190417180344 13 0 0.0 0.0 0.00 0.00 0.00 81 1020.5
20190417175850 13 0 0.0 0.0 0.00 0.00 0.00 80 1020.4
20190417175344 13 0 0.0 0.0 0.00 0.00 0.00 80 1020.4
20190417174844 14 0 0.0 0.0 0.00 0.00 0.00 79 1020.4
20190417173844 14 0 0.0 0.0 0.00 0.00 0.00 79 1020.4
20190417173344 14 0 0.0 0.0 0.00 0.00 0.00 78 1020.3
20190417172844 14 0 0.0 0.0 0.00 0.00 0.00 78 1020.4
20190417172344 14 0 0.0 0.0 0.00 0.00 0.00 78 1020.3
20190417171844 14 0 0.0 0.0 0.00 0.00 0.00 78 1020.5
20190417171344 14 0 0.0 0.0 0.00 0.00 0.00 77 1020.3
20190417170844 14 0 0.0 0.0 0.00 0.00 0.00 77 1020.4
20190417170344 14 0 0.0 0.0 0.00 0.00 0.00 77 1020.4
20190417165344 15 0 0.0 0.0 0.00 0.00 0.00 76 1020.5
20190417164844 15 0 0.0 0.0 0.00 0.00 0.00 76 1020.5
20190417164344 15 0 0.0 0.0 0.00 0.00 0.00 75 1020.6
20190417163844 15 0 0.0 0.0 0.00 0.00 0.00 75 1020.5
20190417163344 15 0 0.0 0.0 0.00 0.00 0.00 75 1020.5
20190417162844 15 0 0.0 0.0 0.00 0.00 0.00 75 1020.5
20190417162344 15 0 0.0 0.0 0.00 0.00 0.00 76 1020.4
20190417161844 15 0 0.0 0.0 0.00 0.00 0.00 76 1020.4
20190417161344 15 0 0.0 0.0 0.00 0.00 0.00 76 1020.4
20190417160844 15 0 0.0 0.0 0.00 0.00 0.00 75 1020.4
20190417160344 15 0 0.0 0.0 0.00 0.00 0.00 75 1020.4
20190417155844 15 0 0.0 0.0 0.00 0.00 0.00 75 1020.5
20190417155344 15 0 0.0 0.0 0.00 0.00 0.00 74 1020.4
20190417154344 15 0 0.0 0.0 0.00 0.00 0.00 74 1020.5
20190417153845 15 0 0.0 0.0 0.00 0.00 0.00 73 1020.4
20190417153344 15 0 0.0 0.0 0.00 0.00 0.00 72 1020.4
20190417152844 15 0 0.0 0.0 0.00 0.00 0.00 72 1020.4
20190417152344 15 0 0.0 0.0 0.00 0.00 0.00 72 1020.5
20190417151844 15 0 0.0 0.0 0.00 0.00 0.00 71 1020.5
20190417151344 15 0 0.0 0.0 0.00 0.00 0.00 69 1020.4
20190417150844 16 0 0.0 0.0 0.00 0.00 0.00 70 1020.5
20190417150344 15 0 0.0 0.0 0.00 0.00 0.00 70 1020.4
20190417145844 15 0 0.0 0.0 0.00 0.00 0.00 71 1020.4
20190417145345 15 0 0.0 0.0 0.00 0.00 0.00 71 1020.4
20190417144344 15 0 0.0 0.0 0.00 0.00 0.00 70 1020.4
20190417143844 16 0 0.0 0.0 0.00 0.00 0.00 69 1020.4
20190417143344 16 0 0.0 0.0 0.00 0.00 0.00 69 1020.6
20190417142845 16 0 0.0 0.0 0.00 0.00 0.00 68 1020.6
20190417142344 16 0 0.0 0.0 0.00 0.00 0.00 66 1020.5
20190417141844 16 0 0.0 0.0 0.00 0.00 0.00 67 1020.6
20190417141344 16 0 0.0 0.0 0.00 0.00 0.00 68 1020.6
20190417140844 16 0 0.0 0.0 0.00 0.00 0.00 66 1020.6
20190417140346 16 0 0.0 0.0 0.00 0.00 0.00 68 1020.6
20190417135844 16 0 0.0 0.0 0.00 0.00 0.00 68 1020.6
20190417135344 16 0 0.0 0.0 0.00 0.00 0.00 69 1020.6
20190417134844 16 0 0.0 0.0 0.00 0.00 0.00 67 1020.6
20190417134345 16 0 0.0 0.0 0.00 0.00 0.00 67 1020.5
20190417133844 16 0 0.0 0.0 0.00 0.00 0.00 68 1020.6
20190417133344 16 0 0.0 0.0 0.00 0.00 0.00 67 1020.5
20190417132844 16 0 0.0 0.0 0.00 0.00 0.00 65 1020.5
20190417132344 16 0 0.0 0.0 0.00 0.00 0.00 64 1020.4
20190417131844 17 0 0.0 0.0 0.00 0.00 0.00 62 1020.5
20190417131345 16 0 0.0 0.0 0.00 0.00 0.00 62 1020.4
20190417130844 16 0 0.0 0.0 0.00 0.00 0.00 60 1020.3
20190417130345 16 0 0.0 0.0 0.00 0.00 0.00 62 1020.4
20190417125844 16 0 0.0 0.0 0.00 0.00 0.00 62 1020.2
20190417125344 16 0 0.0 0.0 0.00 0.00 0.00 67 1020.4
20190417124844 16 0 0.0 0.0 0.00 0.00 0.00 66 1020.5
20190417123344 16 0 0.0 0.0 0.00 0.00 0.00 65 1020.5
20190417122844 16 0 0.0 0.0 0.00 0.00 0.00 64 1020.5
20190417121844 17 0 0.0 0.0 0.00 0.00 0.00 60 1020.4